Map

Track Data

SID SEASON NUMBER BASIN SUBBASIN NAME ISO_TIME NATURE LAT LON WMO_WIND WMO_PRES WMO_AGENCY TRACK_TYPE DIST2LAND LANDFALL IFLAG USA_AGENCY USA_ATCF_ID USA_LAT USA_LON USA_RECORD USA_STATUS USA_WIND USA_PRES USA_SSHS USA_R34_NE USA_R34_SE USA_R34_SW USA_R34_NW USA_R50_NE USA_R50_SE USA_R50_SW USA_R50_NW USA_R64_NE USA_R64_SE USA_R64_SW USA_R64_NW USA_POCI USA_ROCI USA_RMW USA_EYE TOKYO_LAT TOKYO_LON TOKYO_GRADE TOKYO_WIND TOKYO_PRES TOKYO_R50_DIR TOKYO_R50_LONG TOKYO_R50_SHORT TOKYO_R30_DIR TOKYO_R30_LONG TOKYO_R30_SHORT TOKYO_LAND CMA_LAT CMA_LON CMA_CAT CMA_WIND CMA_PRES HKO_LAT HKO_LON HKO_CAT HKO_WIND HKO_PRES NEWDELHI_LAT NEWDELHI_LON NEWDELHI_GRADE NEWDELHI_WIND NEWDELHI_PRES NEWDELHI_CI NEWDELHI_DP NEWDELHI_POCI REUNION_LAT REUNION_LON REUNION_TYPE REUNION_WIND REUNION_PRES REUNION_TNUM REUNION_CI REUNION_RMW REUNION_R34_NE REUNION_R34_SE REUNION_R34_SW REUNION_R34_NW REUNION_R50_NE REUNION_R50_SE REUNION_R50_SW REUNION_R50_NW REUNION_R64_NE REUNION_R64_SE REUNION_R64_SW REUNION_R64_NW BOM_LAT BOM_LON BOM_TYPE BOM_WIND BOM_PRES BOM_TNUM BOM_CI BOM_RMW BOM_R34_NE BOM_R34_SE BOM_R34_SW BOM_R34_NW BOM_R50_NE BOM_R50_SE BOM_R50_SW BOM_R50_NW BOM_R64_NE BOM_R64_SE BOM_R64_SW BOM_R64_NW BOM_ROCI BOM_POCI BOM_EYE BOM_POS_METHOD BOM_PRES_METHOD NADI_LAT NADI_LON NADI_CAT NADI_WIND NADI_PRES WELLINGTON_LAT WELLINGTON_LON WELLINGTON_WIND WELLINGTON_PRES DS824_LAT DS824_LON DS824_STAGE DS824_WIND DS824_PRES TD9636_LAT TD9636_LON TD9636_STAGE TD9636_WIND TD9636_PRES TD9635_LAT TD9635_LON TD9635_WIND TD9635_PRES TD9635_ROCI NEUMANN_LAT NEUMANN_LON NEUMANN_CLASS NEUMANN_WIND NEUMANN_PRES MLC_LAT MLC_LON MLC_CLASS MLC_WIND MLC_PRES USA_GUST BOM_GUST BOM_GUST_PER REUNION_GUST REUNION_GUST_PER USA_SEAHGT USA_SEARAD_NE USA_SEARAD_SE USA_SEARAD_SW USA_SEARAD_NW STORM_SPEED STORM_DIR
1967003S20040 1967 3 SI MM FLORENCE 1967-01-03 06:00:00 TS -20.0000 40.0000 reunion main 348 348 _____O______O_ -1 -20.0000 40.0000 3 9.90000 -20.0000 40.0000 TC 25 5 87
1967003S20040 1967 3 SI MM FLORENCE 1967-01-03 09:00:00 TS -19.9901 40.2425 main 355 349 _____P______P_ -1 -19.9901 40.2425 3 -19.9901 40.2425 TC 27 5 90
1967003S20040 1967 3 SI MM FLORENCE 1967-01-03 12:00:00 TS -20.0000 40.5000 reunion main 349 321 _____O______O_ -1 -20.0000 40.5000 99 9.90000 -20.0000 40.5000 TC 30 5 96
1967003S20040 1967 3 SI MM FLORENCE 1967-01-03 15:00:00 TS -20.0424 40.7850 main 321 288 _____P______P_ -1 -20.0424 40.7850 99 -20.0424 40.7850 TC 32 6 100
1967003S20040 1967 3 SI MM FLORENCE 1967-01-03 18:00:00 TS -20.1000 41.1000 reunion main 288 256 _____O______O_ -1 -20.1000 41.1000 99 9.90000 -20.1000 41.1000 TC 35 6 100
1967003S20040 1967 3 SI MM FLORENCE 1967-01-03 21:00:00 TS -20.1576 41.4650 main 247 221 _____P______P_ -1 -20.1576 41.4650 99 -20.1576 41.4650 TC 32 7 99
1967003S20040 1967 3 SI MM FLORENCE 1967-01-04 00:00:00 TS -20.2000 41.8000 reunion main 221 205 _____O______O_ -1 -20.2000 41.8000 99 9.90000 -20.2000 41.8000 TC 30 5 99
1967003S20040 1967 3 SI MM FLORENCE 1967-01-04 03:00:00 TS -20.2374 42.0149 main 205 189 _____P______P_ -1 -20.2374 42.0149 99 -20.2374 42.0149 TC 32 4 90
1967003S20040 1967 3 SI MM FLORENCE 1967-01-04 06:00:00 TS -20.2000 42.2000 reunion main 189 165 _____O______O_ -1 -20.2000 42.2000 3 9.90000 -20.2000 42.2000 TC 35 5 67
1967003S20040 1967 3 SI MM FLORENCE 1967-01-04 09:00:00 TS -20.0451 42.4878 main 171 160 _____P______P_ -1 -20.0451 42.4878 3 -20.0451 42.4878 TC 35 6 50
1967003S20040 1967 3 SI MM FLORENCE 1967-01-04 12:00:00 TS -19.8000 42.7000 reunion main 165 163 _____O______O_ -1 -19.8000 42.7000 99 9.90000 -19.8000 42.7000 TC 35 6 22
1967003S20040 1967 3 SI MM FLORENCE 1967-01-04 15:00:00 TS -19.5149 42.7099 main 163 159 _____P______P_ -1 -19.5149 42.7099 99 -19.5149 42.7099 TC 35 6 351
1967003S20040 1967 3 SI MM FLORENCE 1967-01-04 18:00:00 TS -19.2000 42.6000 reunion main 168 166 _____O______O_ -1 -19.2000 42.6000 99 9.90000 -19.2000 42.6000 TC 35 7 340
1967003S20040 1967 3 SI MM FLORENCE 1967-01-04 21:00:00 TS -18.8700 42.4649 main 167 167 _____P______P_ -1 -18.8700 42.4649 99 -18.8700 42.4649 TC 32 7 335
1967003S20040 1967 3 SI MM FLORENCE 1967-01-05 00:00:00 TS -18.6000 42.3000 reunion main 180 179 _____O______O_ -1 -18.6000 42.3000 99 9.90000 -18.6000 42.3000 TC 30 5 328
1967003S20040 1967 3 SI MM FLORENCE 1967-01-05 03:00:00 TS -18.4174 42.1649 main 189 189 _____P______P_ -1 -18.4174 42.1649 99 -18.4174 42.1649 TC 32 3 305
1967003S20040 1967 3 SI MM FLORENCE 1967-01-05 06:00:00 TS -18.4000 42.0000 reunion main 211 211 _____O______O_ -1 -18.4000 42.0000 3 9.90000 -18.4000 42.0000 TC 35 4 248
1967003S20040 1967 3 SI MM FLORENCE 1967-01-05 09:00:00 TS -18.5751 41.7576 main 233 233 _____P______P_ -1 -18.5751 41.7576 3 -18.5751 41.7576 TC 37 7 224
1967003S20040 1967 3 SI MM FLORENCE 1967-01-05 12:00:00 TS -18.9000 41.5000 reunion main 269 269 _____O______O_ -1 -18.9000 41.5000 99 9.90000 -18.9000 41.5000 TC 40 9 210
1967003S20040 1967 3 SI MM FLORENCE 1967-01-05 15:00:00 TS -19.3149 41.3075 main 301 301 _____P______P_ -1 -19.3149 41.3075 99 -19.3149 41.3075 TC 37 9 205
1967003S20040 1967 3 SI MM FLORENCE 1967-01-05 18:00:00 TS -19.7000 41.1000 reunion main 313 313 _____O______O_ -1 -19.7000 41.1000 99 9.90000 -19.7000 41.1000 TC 35 7 219
1967003S20040 1967 3 SI MM FLORENCE 1967-01-05 21:00:00 TS -19.8950 40.8149 main 327 327 _____P______P_ -1 -19.8950 40.8149 99 -19.8950 40.8149 TC 32 6 242
1967003S20040 1967 3 SI MM FLORENCE 1967-01-06 00:00:00 TS -20.0000 40.5000 reunion main 349 349 _____O______O_ -1 -20.0000 40.5000 99 9.90000 -20.0000 40.5000 TC 30 6 250
1967003S20040 1967 3 SI MM FLORENCE 1967-01-06 03:00:00 TS -20.0923 40.2223 main 365 362 _____P______P_ -1 -20.0923 40.2223 99 -20.0923 40.2223 TC 32 6 250
1967003S20040 1967 3 SI MM FLORENCE 1967-01-06 06:00:00 TS -20.2000 39.9000 reunion main 367 365 _____O______O_ -1 -20.2000 39.9000 3 9.90000 -20.2000 39.9000 TC 35 8 248
1967003S20040 1967 3 SI MM FLORENCE 1967-01-06 09:00:00 TS -20.3851 39.4651 main 367 340 _____P______P_ -1 -20.3851 39.4651 3 -20.3851 39.4651 TC 35 9 245
1967003S20040 1967 3 SI MM FLORENCE 1967-01-06 12:00:00 TS -20.6000 39.0000 reunion main 340 320 _____O______O_ -1 -20.6000 39.0000 99 9.90000 -20.6000 39.0000 TC 35 9 244
1967003S20040 1967 3 SI MM FLORENCE 1967-01-06 15:00:00 TS -20.7924 38.5774 main 320 306 _____P______P_ -1 -20.7924 38.5774 99 -20.7924 38.5774 TC 35 8 242
1967003S20040 1967 3 SI MM FLORENCE 1967-01-06 18:00:00 TS -21.0000 38.2000 reunion main 307 271 _____O______O_ -1 -21.0000 38.2000 99 9.90000 -21.0000 38.2000 TC 35 8 235
1967003S20040 1967 3 SI MM FLORENCE 1967-01-06 21:00:00 TS -21.2424 37.8849 main 271 230 _____P______P_ -1 -21.2424 37.8849 99 -21.2424 37.8849 TC 32 8 228
1967003S20040 1967 3 SI MM FLORENCE 1967-01-07 00:00:00 TS -21.5000 37.6000 reunion main 230 193 _____O______O_ -1 -21.5000 37.6000 99 9.90000 -21.5000 37.6000 TC 30 7 227
1967003S20040 1967 3 SI MM FLORENCE 1967-01-07 03:00:00 TS -21.7527 37.3052 main 190 156 _____P______P_ -1 -21.7527 37.3052 99 -21.7527 37.3052 TC 27 8 228
1967003S20040 1967 3 SI MM FLORENCE 1967-01-07 06:00:00 TS -22.0000 37.0000 reunion main 156 _____O______O_ -1 -22.0000 37.0000 6 9.90000 -22.0000 37.0000 TC 25 8 229

About IBTrACS Database

This database is a web-friendly format of International Best Track Archive for Climate Stewardship (IBTrACS), a global best track data archive curated by NOAA dating back to 1842.

Updated: 2021-10-21